createdAt,value
2022-09-09T00:01:35.281Z,0.80
2022-09-09T00:04:17.380Z,0.88
2022-09-09T00:06:52.720Z,0.82
2022-09-09T00:09:23.584Z,1.02
2022-09-09T00:11:57.752Z,0.75
2022-09-09T00:14:35.016Z,0.77
2022-09-09T00:17:11.242Z,0.68
2022-09-09T00:19:51.500Z,0.70
2022-09-09T00:22:21.757Z,0.73
2022-09-09T00:24:55.793Z,0.80
2022-09-09T00:27:33.684Z,1.05
2022-09-09T00:30:17.192Z,0.75
2022-09-09T00:32:46.368Z,1.08
2022-09-09T00:35:23.685Z,0.85
2022-09-09T00:37:56.499Z,1.10
2022-09-09T00:40:33.636Z,1.05
2022-09-09T00:43:23.341Z,0.90
2022-09-09T00:46:27.849Z,1.10
2022-09-09T00:49:06.259Z,1.23
2022-09-09T00:51:51.246Z,1.10
2022-09-09T00:54:34.966Z,1.30
2022-09-09T00:57:20.992Z,1.00
2022-09-09T00:59:52.964Z,1.25
2022-09-09T01:02:30.989Z,1.23
2022-09-09T01:05:10.073Z,1.50
2022-09-09T01:07:40.760Z,1.52
2022-09-09T01:10:24.011Z,1.48
2022-09-09T01:12:57.796Z,1.45
2022-09-09T01:15:31.166Z,1.40
2022-09-09T01:18:06.330Z,1.70
2022-09-09T01:20:48.882Z,1.30
2022-09-09T01:23:55.066Z,1.45
2022-09-09T01:26:32.392Z,1.70
2022-09-09T01:29:04.523Z,1.63
2022-09-09T01:31:41.913Z,1.77
2022-09-09T01:34:14.220Z,1.83
2022-09-09T01:36:49.317Z,1.60
2022-09-09T01:39:17.682Z,1.38
2022-09-09T01:41:49.840Z,1.50
2022-09-09T01:44:21.838Z,1.85
2022-09-09T01:46:50.761Z,1.60
2022-09-09T01:49:21.976Z,1.58
2022-09-09T01:51:55.312Z,1.85
2022-09-09T01:54:35.045Z,1.60
2022-09-09T01:57:19.820Z,1.95
2022-09-09T02:00:03.038Z,2.10
2022-09-09T02:02:56.776Z,1.73
2022-09-09T02:05:40.531Z,1.80
2022-09-09T02:08:23.210Z,1.92
2022-09-09T02:11:07.763Z,1.75
2022-09-09T02:14:03.601Z,1.52
2022-09-09T02:16:40.045Z,2.15
2022-09-09T02:19:14.738Z,1.48
2022-09-09T02:22:08.392Z,1.77
2022-09-09T02:24:41.019Z,1.80
2022-09-09T02:27:17.369Z,1.58
2022-09-09T02:29:48.412Z,2.05
2022-09-09T02:34:55.041Z,1.73
2022-09-09T02:37:29.411Z,2.08
2022-09-09T02:39:58.876Z,1.52
2022-09-09T02:42:27.393Z,1.52
2022-09-09T02:44:59.320Z,1.73
2022-09-09T02:47:37.270Z,2.10
2022-09-09T02:50:19.712Z,1.85
2022-09-09T02:53:02.072Z,1.60
2022-09-09T02:55:40.955Z,2.10
2022-09-09T02:58:17.758Z,2.30
2022-09-09T03:00:54.517Z,2.13
2022-09-09T03:03:23.350Z,2.03
2022-09-09T03:05:53.012Z,2.25
2022-09-09T03:08:21.636Z,2.08
2022-09-09T03:10:50.138Z,2.00
2022-09-09T03:13:20.258Z,2.20
2022-09-09T03:15:50.997Z,2.20
2022-09-09T03:18:21.847Z,1.95
2022-09-09T03:20:54.980Z,2.65
2022-09-09T03:23:23.910Z,1.98
2022-09-09T03:25:53.187Z,1.95
2022-09-09T03:28:32.214Z,2.30
2022-09-09T03:31:04.840Z,1.80
2022-09-09T03:33:38.009Z,1.73
2022-09-09T03:36:08.613Z,2.55
2022-09-09T03:38:37.522Z,2.70
2022-09-09T03:41:08.640Z,2.00
2022-09-09T03:43:38.323Z,2.47
2022-09-09T03:46:08.166Z,2.70
2022-09-09T03:48:36.555Z,2.20
2022-09-09T03:51:06.990Z,2.22
2022-09-09T03:53:36.752Z,2.30
2022-09-09T03:56:07.936Z,2.33
2022-09-09T03:58:36.776Z,2.45
2022-09-09T04:03:47.980Z,1.80
2022-09-09T04:06:18.100Z,2.55
2022-09-09T04:08:49.554Z,2.00
2022-09-09T04:11:18.857Z,1.85
2022-09-09T04:13:48.735Z,1.70
2022-09-09T04:16:19.876Z,2.28
2022-09-09T04:18:48.983Z,2.22
2022-09-09T04:21:18.911Z,1.95
2022-09-09T04:23:47.491Z,1.77
2022-09-09T04:26:16.086Z,2.55
2022-09-09T04:28:46.822Z,2.13
2022-09-09T04:31:24.344Z,2.60
2022-09-09T04:33:55.824Z,1.88
2022-09-09T04:36:25.238Z,2.00
2022-09-09T04:38:58.303Z,2.10
2022-09-09T04:41:27.340Z,2.10
2022-09-09T04:43:56.896Z,2.30
2022-09-09T04:46:26.563Z,2.15
2022-09-09T04:48:55.483Z,2.65
2022-09-09T04:53:56.062Z,2.08
2022-09-09T04:56:27.701Z,2.78
2022-09-09T04:58:59.052Z,1.80
2022-09-09T05:01:39.285Z,2.20
2022-09-09T05:04:09.485Z,1.73
2022-09-09T05:06:38.226Z,2.00
2022-09-09T05:09:07.267Z,1.70
2022-09-09T05:11:37.607Z,2.28
2022-09-09T05:14:15.597Z,2.25
2022-09-09T05:16:48.090Z,1.90
2022-09-09T05:19:20.029Z,1.73
2022-09-09T05:21:52.209Z,1.55
2022-09-09T05:24:25.385Z,1.88
2022-09-09T05:26:59.114Z,2.17
2022-09-09T05:29:27.838Z,1.65
2022-09-09T05:31:59.338Z,1.60
2022-09-09T05:34:27.963Z,2.25
2022-09-09T05:36:56.135Z,2.13
2022-09-09T05:39:25.873Z,1.83
2022-09-09T05:41:54.140Z,1.92
2022-09-09T05:44:24.315Z,1.60
2022-09-09T05:46:52.649Z,2.08
2022-09-09T05:49:23.074Z,1.70
2022-09-09T05:51:52.235Z,1.70
2022-09-09T05:54:22.451Z,1.65
2022-09-09T05:56:54.550Z,1.80
2022-09-09T05:59:24.213Z,2.03
2022-09-09T06:01:55.232Z,1.70
2022-09-09T06:04:31.330Z,1.92
2022-09-09T06:07:01.964Z,2.17
2022-09-09T06:09:33.569Z,1.75
2022-09-09T06:12:01.905Z,2.00
2022-09-09T06:14:34.235Z,2.10
2022-09-09T06:17:03.815Z,1.55
2022-09-09T06:19:34.188Z,2.05
2022-09-09T06:22:03.305Z,2.05
2022-09-09T06:24:34.492Z,1.85
2022-09-09T06:27:06.356Z,1.90
2022-09-09T06:29:38.283Z,2.20
2022-09-09T06:32:09.800Z,2.05
2022-09-09T06:34:39.448Z,2.22
2022-09-09T06:37:09.528Z,2.25
2022-09-09T06:39:43.108Z,2.35
2022-09-09T06:42:11.427Z,1.92
2022-09-09T06:44:51.596Z,2.08
2022-09-09T06:47:36.810Z,1.80
2022-09-09T06:50:09.340Z,2.30
2022-09-09T06:52:37.746Z,1.98
2022-09-09T06:55:08.921Z,1.70
2022-09-09T06:57:38.417Z,2.10
2022-09-09T07:00:24.089Z,2.08
2022-09-09T07:02:53.475Z,2.33
2022-09-09T07:05:23.541Z,1.90
2022-09-09T07:07:54.180Z,1.73
2022-09-09T07:10:22.828Z,3.10
2022-09-09T07:12:54.083Z,1.85
2022-09-09T07:15:25.033Z,1.67
2022-09-09T07:17:54.856Z,2.10
2022-09-09T07:20:25.850Z,2.22
2022-09-09T07:22:59.322Z,1.70
2022-09-09T07:25:29.918Z,1.85
2022-09-09T07:27:59.229Z,1.75
2022-09-09T07:30:28.104Z,1.73
2022-09-09T07:32:59.294Z,2.72
2022-09-09T07:35:29.184Z,2.83
2022-09-09T07:37:57.506Z,2.30
2022-09-09T07:40:26.093Z,2.38
2022-09-09T07:42:55.117Z,1.95
2022-09-09T07:45:23.651Z,1.92
2022-09-09T07:47:53.690Z,2.03
2022-09-09T07:50:22.336Z,1.90
2022-09-09T07:52:54.436Z,2.00
2022-09-09T07:55:24.900Z,1.92
2022-09-09T07:57:53.515Z,1.83
2022-09-09T08:00:23.112Z,2.00
2022-09-09T08:02:55.947Z,1.73
2022-09-09T08:05:24.606Z,1.77
2022-09-09T08:07:54.325Z,2.00
2022-09-09T08:10:23.435Z,1.50
2022-09-09T08:13:14.877Z,2.25
2022-09-09T08:15:44.333Z,1.60
2022-09-09T08:18:13.003Z,1.45
2022-09-09T08:20:41.303Z,1.35
2022-09-09T08:23:11.178Z,1.92
2022-09-09T08:25:40.108Z,1.95
2022-09-09T08:28:08.751Z,1.85
2022-09-09T08:30:38.089Z,1.67
2022-09-09T08:33:08.858Z,1.50
2022-09-09T08:35:37.220Z,1.63
2022-09-09T08:38:10.654Z,2.28
2022-09-09T08:40:50.417Z,2.28
2022-09-09T08:43:23.550Z,1.48
2022-09-09T08:46:02.765Z,1.55
2022-09-09T08:48:46.593Z,1.58
2022-09-09T08:51:16.554Z,1.33
2022-09-09T08:53:59.020Z,1.63
2022-09-09T08:56:33.299Z,1.57
2022-09-09T08:59:04.938Z,1.77
2022-09-09T09:02:02.557Z,1.52
2022-09-09T09:05:07.323Z,1.85
2022-09-09T09:07:54.610Z,1.60
2022-09-09T09:10:47.674Z,1.10
2022-09-09T09:13:33.229Z,1.50
2022-09-09T09:16:08.579Z,1.40
2022-09-09T09:18:38.729Z,1.77
2022-09-09T09:21:14.199Z,1.38
2022-09-09T09:23:49.650Z,1.75
2022-09-09T09:26:18.334Z,1.35
2022-09-09T09:28:48.223Z,1.15
2022-09-09T09:31:20.203Z,1.52
2022-09-09T09:33:53.998Z,1.23
2022-09-09T09:36:36.900Z,1.33
2022-09-09T09:42:15.018Z,1.38
2022-09-09T09:44:47.670Z,1.83
2022-09-09T09:47:24.368Z,1.00
2022-09-09T09:50:22.206Z,1.50
2022-09-09T09:52:59.436Z,1.27
2022-09-09T09:55:32.879Z,1.10
2022-09-09T09:58:06.648Z,1.30
2022-09-09T10:00:37.481Z,0.88
2022-09-09T10:03:23.991Z,1.08
2022-09-09T10:05:57.117Z,0.90
2022-09-09T10:08:27.766Z,1.27
2022-09-09T10:11:24.518Z,1.20
2022-09-09T10:14:05.685Z,1.15
2022-09-09T10:16:57.589Z,1.13
2022-09-09T10:19:34.530Z,1.10
2022-09-09T10:22:22.603Z,1.40
2022-09-09T10:25:27.654Z,1.10
2022-09-09T10:28:32.895Z,1.48
2022-09-09T10:31:18.382Z,1.55
2022-09-09T10:33:53.815Z,1.80
2022-09-09T10:36:26.976Z,1.65
2022-09-09T10:39:02.078Z,1.48
2022-09-09T10:41:51.440Z,1.63
2022-09-09T10:44:36.850Z,1.63
2022-09-09T10:47:39.720Z,1.38
2022-09-09T10:53:48.296Z,1.85
2022-09-09T10:56:20.801Z,1.40
2022-09-09T10:58:53.730Z,1.98
2022-09-09T11:01:27.088Z,2.40
2022-09-09T11:04:03.905Z,1.30
2022-09-09T11:06:40.408Z,2.15
2022-09-09T11:09:16.772Z,2.03
2022-09-09T11:11:53.001Z,1.20
2022-09-09T11:14:28.711Z,1.70
2022-09-09T11:17:03.288Z,1.23
2022-09-09T11:19:38.037Z,1.63
2022-09-09T11:22:16.935Z,1.52
2022-09-09T11:24:52.558Z,1.70
2022-09-09T11:27:28.196Z,1.80
2022-09-09T11:30:37.796Z,1.80
2022-09-09T11:33:58.449Z,1.83
2022-09-09T11:37:03.465Z,2.10
2022-09-09T11:40:11.194Z,1.80
2022-09-09T11:42:39.463Z,1.75
2022-09-09T11:45:26.792Z,2.00
2022-09-09T11:47:57.066Z,1.98
2022-09-09T11:50:38.370Z,1.77
2022-09-09T11:53:23.624Z,1.67
2022-09-09T11:56:28.170Z,2.38
2022-09-09T11:59:01.730Z,1.60
2022-09-09T12:01:52.683Z,1.70
2022-09-09T12:04:41.229Z,1.55
2022-09-09T12:07:35.400Z,1.75
2022-09-09T12:10:21.463Z,2.20
2022-09-09T12:12:51.071Z,2.60
2022-09-09T12:15:32.014Z,1.77
2022-09-09T12:18:03.812Z,1.90
2022-09-09T12:20:38.281Z,1.50
2022-09-09T12:23:26.102Z,1.50
2022-09-09T12:26:07.493Z,2.03
2022-09-09T12:28:53.121Z,1.60
2022-09-09T12:31:27.421Z,1.40
2022-09-09T12:33:55.612Z,1.67
2022-09-09T12:36:34.961Z,1.50
2022-09-09T12:39:20.129Z,1.77
2022-09-09T12:41:58.317Z,2.22
2022-09-09T12:44:29.992Z,1.92
2022-09-09T12:47:03.309Z,1.92
2022-09-09T12:49:37.313Z,1.20
2022-09-09T12:52:10.835Z,1.30
2022-09-09T12:54:39.691Z,2.00
2022-09-09T12:57:13.870Z,1.85
2022-09-09T12:59:46.743Z,1.60
2022-09-09T13:02:23.705Z,1.48
2022-09-09T13:04:53.231Z,1.67
2022-09-09T13:07:22.715Z,1.30
2022-09-09T13:09:51.975Z,1.23
2022-09-09T13:12:23.481Z,1.30
2022-09-09T13:14:57.292Z,1.73
2022-09-09T13:17:29.832Z,1.30
2022-09-09T13:19:59.124Z,1.50
2022-09-09T13:22:36.596Z,1.20
2022-09-09T13:25:09.040Z,1.40
2022-09-09T13:30:29.495Z,1.30
2022-09-09T13:33:08.359Z,1.15
2022-09-09T13:35:37.810Z,1.40
2022-09-09T13:38:12.586Z,1.60
2022-09-09T13:40:41.741Z,1.50
2022-09-09T13:43:22.461Z,1.35
2022-09-09T13:46:02.140Z,2.05
2022-09-09T13:48:30.998Z,1.50
2022-09-09T13:51:04.041Z,1.10
2022-09-09T13:53:32.301Z,1.63
2022-09-09T13:56:02.200Z,1.65
2022-09-09T13:58:30.995Z,1.33
2022-09-09T14:01:00.896Z,1.50
2022-09-09T14:03:29.210Z,1.35
2022-09-09T14:05:58.139Z,1.83
2022-09-09T14:08:37.796Z,1.45
2022-09-09T14:11:06.181Z,1.95
2022-09-09T14:13:34.668Z,1.80
2022-09-09T14:16:04.522Z,1.50
2022-09-09T14:18:32.909Z,1.40
2022-09-09T14:21:01.203Z,1.40
2022-09-09T14:23:30.259Z,1.85
2022-09-09T14:25:58.779Z,1.35
2022-09-09T14:28:53.951Z,1.35
2022-09-09T14:31:19.364Z,2.42
2022-09-09T14:33:47.649Z,1.30
2022-09-09T14:36:16.062Z,1.88
2022-09-09T14:38:44.365Z,1.52
2022-09-09T14:41:15.642Z,1.48
2022-09-09T14:43:45.568Z,1.55
2022-09-09T14:46:16.501Z,2.08
2022-09-09T14:48:49.683Z,1.63
2022-09-09T14:51:24.072Z,1.52
2022-09-09T14:53:55.054Z,1.50
2022-09-09T14:56:26.996Z,2.50
2022-09-09T14:58:57.040Z,2.08
2022-09-09T15:01:28.127Z,1.52
2022-09-09T15:04:00.007Z,1.10
2022-09-09T15:06:30.064Z,1.20
2022-09-09T15:08:59.840Z,0.90
2022-09-09T15:11:31.328Z,1.13
2022-09-09T15:14:00.275Z,1.00
2022-09-09T15:16:30.528Z,1.50
2022-09-09T15:19:02.550Z,2.03
2022-09-09T15:21:33.012Z,1.70
2022-09-09T15:24:01.814Z,1.30
2022-09-09T15:26:30.848Z,1.25
2022-09-09T15:29:00.287Z,0.93
2022-09-09T15:31:31.474Z,1.35
2022-09-09T15:34:03.071Z,1.13
2022-09-09T15:36:33.956Z,1.20
2022-09-09T15:39:04.438Z,1.92
2022-09-09T15:41:33.612Z,1.30
2022-09-09T15:44:02.612Z,1.23
2022-09-09T15:46:33.921Z,1.58
2022-09-09T15:49:09.917Z,1.90
2022-09-09T15:51:44.292Z,2.10
2022-09-09T15:54:17.711Z,1.52
2022-09-09T15:56:47.378Z,1.50
2022-09-09T15:59:15.736Z,1.52
2022-09-09T16:01:44.916Z,1.60
2022-09-09T16:04:15.828Z,1.42
2022-09-09T16:06:43.936Z,1.23
2022-09-09T16:09:12.281Z,1.60
2022-09-09T16:11:40.940Z,1.83
2022-09-09T16:14:11.949Z,1.42
2022-09-09T16:16:40.353Z,0.85
2022-09-09T16:19:11.467Z,1.33
2022-09-09T16:21:44.660Z,1.27
2022-09-09T16:24:15.274Z,1.00
2022-09-09T16:26:47.479Z,0.90
2022-09-09T16:29:18.226Z,0.88
2022-09-09T16:31:47.587Z,0.90
2022-09-09T16:34:16.419Z,1.00
2022-09-09T16:36:47.029Z,0.80
2022-09-09T16:39:17.599Z,1.15
2022-09-09T16:41:48.308Z,1.20
2022-09-09T16:44:19.163Z,0.88
2022-09-09T16:46:49.986Z,0.95
2022-09-09T16:49:18.539Z,1.42
2022-09-09T16:51:50.160Z,1.63
2022-09-09T16:54:19.602Z,1.60
2022-09-09T16:56:50.012Z,1.73
2022-09-09T16:59:21.413Z,1.50
2022-09-09T17:01:53.095Z,1.10
2022-09-09T17:04:25.062Z,2.35
2022-09-09T17:06:58.087Z,1.23
2022-09-09T17:09:29.890Z,1.92
2022-09-09T17:11:58.357Z,1.30
2022-09-09T17:14:26.623Z,1.45
2022-09-09T17:16:55.236Z,1.83
2022-09-09T17:19:23.629Z,2.22
2022-09-09T17:22:15.568Z,1.88
2022-09-09T17:24:42.729Z,1.70
2022-09-09T17:27:11.106Z,1.48
2022-09-09T17:29:39.330Z,1.83
2022-09-09T17:32:08.386Z,1.40
2022-09-09T17:34:38.797Z,1.70
2022-09-09T17:37:07.821Z,1.58
2022-09-09T17:39:36.653Z,1.55
2022-09-09T17:42:08.781Z,2.10
2022-09-09T17:44:37.271Z,2.25
2022-09-09T17:47:07.063Z,1.92
2022-09-09T17:49:35.766Z,2.33
2022-09-09T17:52:04.585Z,1.70
2022-09-09T17:54:34.459Z,1.88
2022-09-09T17:57:05.471Z,1.80
2022-09-09T17:59:35.645Z,2.00
2022-09-09T18:02:05.559Z,2.30
2022-09-09T18:04:34.254Z,2.35
2022-09-09T18:07:02.515Z,2.72
2022-09-09T18:09:31.194Z,1.70
2022-09-09T18:12:01.624Z,2.13
2022-09-09T18:14:32.595Z,2.30
2022-09-09T18:17:04.421Z,2.50
2022-09-09T18:19:34.445Z,2.25
2022-09-09T18:22:05.198Z,2.17
2022-09-09T18:24:33.883Z,2.40
2022-09-09T18:27:02.300Z,2.30
2022-09-09T18:29:31.128Z,2.03
2022-09-09T18:32:01.045Z,3.50
2022-09-09T18:34:31.317Z,2.42
2022-09-09T18:36:59.618Z,2.05
2022-09-09T18:39:31.328Z,1.88
2022-09-09T18:42:02.663Z,2.30
2022-09-09T18:44:34.742Z,1.83
2022-09-09T18:47:04.922Z,2.22
2022-09-09T18:49:34.217Z,2.22
2022-09-09T18:52:03.338Z,2.20
2022-09-09T18:54:33.389Z,1.73
2022-09-09T18:57:02.155Z,2.20
2022-09-09T18:59:31.432Z,2.42
2022-09-09T19:01:59.822Z,1.98
2022-09-09T19:04:29.877Z,1.98
2022-09-09T19:06:58.634Z,1.90
2022-09-09T19:09:31.061Z,2.55
2022-09-09T19:14:30.192Z,2.35
2022-09-09T19:16:58.602Z,2.45
2022-09-09T19:19:32.576Z,1.40
2022-09-09T19:22:01.567Z,1.90
2022-09-09T19:24:33.087Z,2.53
2022-09-09T19:27:06.965Z,2.08
2022-09-09T19:29:39.333Z,2.20
2022-09-09T19:34:57.323Z,2.10
2022-09-09T19:37:25.760Z,1.95
2022-09-09T19:39:54.106Z,2.20
2022-09-09T19:42:22.537Z,2.30
2022-09-09T19:44:51.089Z,1.60
2022-09-09T19:47:20.048Z,2.40
2022-09-09T19:49:48.629Z,2.10
2022-09-09T19:52:18.720Z,2.13
2022-09-09T19:54:47.187Z,2.30
2022-09-09T19:57:15.622Z,2.28
2022-09-09T19:59:44.090Z,2.13
2022-09-09T20:02:15.697Z,1.90
2022-09-09T20:04:44.413Z,2.20
2022-09-09T20:07:12.693Z,2.05
2022-09-09T20:09:42.891Z,2.08
2022-09-09T20:12:11.056Z,2.17
2022-09-09T20:14:40.121Z,2.28
2022-09-09T20:17:10.000Z,2.20
2022-09-09T20:19:39.746Z,2.35
2022-09-09T20:22:09.452Z,2.33
2022-09-09T20:24:38.017Z,2.58
2022-09-09T20:27:08.210Z,2.60
2022-09-09T20:29:38.104Z,1.80
2022-09-09T20:32:07.027Z,2.05
2022-09-09T20:34:35.503Z,2.20
2022-09-09T20:37:04.713Z,1.90
2022-09-09T20:39:33.259Z,1.98
2022-09-09T20:42:02.329Z,2.25
2022-09-09T20:44:32.201Z,1.77
2022-09-09T20:47:06.117Z,2.20
2022-09-09T20:49:35.122Z,1.80
2022-09-09T20:52:04.493Z,1.75
2022-09-09T20:54:33.507Z,1.90
2022-09-09T20:57:01.990Z,1.98
2022-09-09T20:59:31.852Z,1.70
2022-09-09T21:02:00.777Z,2.15
2022-09-09T21:04:29.277Z,1.92
2022-09-09T21:06:57.571Z,1.50
2022-09-09T21:09:26.054Z,1.92
2022-09-09T21:11:54.539Z,1.90
2022-09-09T21:14:23.672Z,1.80
2022-09-09T21:16:55.070Z,1.73
2022-09-09T21:19:24.189Z,1.75
2022-09-09T21:21:54.281Z,1.67
2022-09-09T21:24:22.683Z,1.80
2022-09-09T21:26:50.881Z,1.77
2022-09-09T21:29:19.318Z,1.95
2022-09-09T21:31:47.753Z,1.90
2022-09-09T21:34:18.378Z,2.17
2022-09-09T21:36:46.637Z,2.08
2022-09-09T21:39:15.772Z,1.90
2022-09-09T21:41:44.334Z,2.80
2022-09-09T21:44:14.310Z,3.05
2022-09-09T21:46:44.808Z,3.45
2022-09-09T21:49:13.404Z,2.90
2022-09-09T21:51:43.011Z,2.63
2022-09-09T21:54:12.315Z,2.55
2022-09-09T21:56:40.609Z,2.45
2022-09-09T21:59:09.187Z,2.60
2022-09-09T22:01:37.712Z,2.97
2022-09-09T22:04:06.088Z,2.90
2022-09-09T22:06:35.360Z,3.33
2022-09-09T22:09:05.123Z,3.05
2022-09-09T22:11:33.582Z,2.88
2022-09-09T22:14:02.915Z,2.40
2022-09-09T22:16:31.683Z,2.60
2022-09-09T22:19:01.900Z,3.08
2022-09-09T22:21:33.199Z,3.00
2022-09-09T22:24:07.242Z,2.22
2022-09-09T22:26:39.393Z,2.15
2022-09-09T22:29:09.615Z,1.60
2022-09-09T22:31:38.411Z,2.25
2022-09-09T22:34:07.874Z,2.30
2022-09-09T22:36:36.651Z,2.22
2022-09-09T22:39:06.973Z,2.00
2022-09-09T22:41:35.309Z,1.80
2022-09-09T22:44:04.532Z,2.00
2022-09-09T22:46:32.785Z,2.10
2022-09-09T22:49:03.335Z,2.03
2022-09-09T22:51:32.063Z,1.60
2022-09-09T22:54:00.244Z,2.25
2022-09-09T22:56:30.040Z,1.80
2022-09-09T22:58:58.711Z,1.90
2022-09-09T23:01:29.227Z,2.03
2022-09-09T23:04:01.569Z,1.35
2022-09-09T23:06:31.658Z,1.20
2022-09-09T23:09:02.685Z,1.70
2022-09-09T23:11:34.895Z,1.50
2022-09-09T23:14:06.997Z,1.27
2022-09-09T23:16:39.660Z,0.90
2022-09-09T23:19:10.748Z,1.25
2022-09-09T23:21:40.917Z,1.30
2022-09-09T23:24:12.568Z,1.02
2022-09-09T23:26:43.359Z,1.42
2022-09-09T23:29:14.209Z,1.05
2022-09-09T23:31:45.024Z,1.10
2022-09-09T23:34:14.348Z,1.20
2022-09-09T23:36:42.596Z,1.38
2022-09-09T23:39:13.067Z,1.40
2022-09-09T23:41:42.932Z,1.25
2022-09-09T23:44:12.626Z,1.30
2022-09-09T23:46:41.143Z,1.75
2022-09-09T23:49:10.635Z,1.42
2022-09-09T23:51:39.387Z,1.38
2022-09-09T23:54:09.727Z,1.33
2022-09-09T23:56:40.338Z,1.33
2022-09-09T23:59:12.813Z,1.40
